sensor_id;sensor_type;location;lat;lon;timestamp;P1;durP1;ratioP1;P2;durP2;ratioP2
4676;SDS011;2352;48.180;11.478;2022-07-23T00:01:31;6.75;;;6.38;;
4676;SDS011;2352;48.180;11.478;2022-07-23T00:04:35;6.90;;;6.40;;
4676;SDS011;2352;48.180;11.478;2022-07-23T00:07:39;7.55;;;7.05;;
4676;SDS011;2352;48.180;11.478;2022-07-23T00:10:42;6.68;;;5.90;;
4676;SDS011;2352;48.180;11.478;2022-07-23T00:13:45;7.00;;;6.60;;
4676;SDS011;2352;48.180;11.478;2022-07-23T00:16:48;6.07;;;5.72;;
4676;SDS011;2352;48.180;11.478;2022-07-23T00:19:51;7.63;;;7.22;;
4676;SDS011;2352;48.180;11.478;2022-07-23T00:22:56;6.70;;;6.30;;
4676;SDS011;2352;48.180;11.478;2022-07-23T00:25:58;6.60;;;6.20;;
4676;SDS011;2352;48.180;11.478;2022-07-23T00:29:01;6.22;;;5.85;;
4676;SDS011;2352;48.180;11.478;2022-07-23T00:32:05;6.97;;;6.57;;
4676;SDS011;2352;48.180;11.478;2022-07-23T00:35:08;7.15;;;6.65;;
4676;SDS011;2352;48.180;11.478;2022-07-23T00:38:12;6.82;;;6.25;;
4676;SDS011;2352;48.180;11.478;2022-07-23T00:41:15;6.70;;;6.13;;
4676;SDS011;2352;48.180;11.478;2022-07-23T00:44:18;6.32;;;5.93;;
4676;SDS011;2352;48.180;11.478;2022-07-23T00:47:23;6.50;;;6.10;;
4676;SDS011;2352;48.180;11.478;2022-07-23T00:50:25;6.57;;;6.18;;
4676;SDS011;2352;48.180;11.478;2022-07-23T00:53:30;6.97;;;6.38;;
4676;SDS011;2352;48.180;11.478;2022-07-23T00:56:33;6.47;;;6.07;;
4676;SDS011;2352;48.180;11.478;2022-07-23T00:59:37;6.47;;;6.07;;
4676;SDS011;2352;48.180;11.478;2022-07-23T01:02:40;8.20;;;6.35;;
4676;SDS011;2352;48.180;11.478;2022-07-23T01:05:43;7.22;;;6.72;;
4676;SDS011;2352;48.180;11.478;2022-07-23T01:08:48;7.57;;;6.97;;
4676;SDS011;2352;48.180;11.478;2022-07-23T01:11:51;8.10;;;7.60;;
4676;SDS011;2352;48.180;11.478;2022-07-23T01:14:56;8.52;;;7.75;;
4676;SDS011;2352;48.180;11.478;2022-07-23T01:18:00;9.90;;;8.52;;
4676;SDS011;2352;48.180;11.478;2022-07-23T01:21:04;8.00;;;7.55;;
4676;SDS011;2352;48.180;11.478;2022-07-23T01:24:08;7.78;;;6.85;;
4676;SDS011;2352;48.180;11.478;2022-07-23T01:27:12;6.20;;;5.70;;
4676;SDS011;2352;48.180;11.478;2022-07-23T01:30:16;7.30;;;6.57;;
4676;SDS011;2352;48.180;11.478;2022-07-23T01:33:18;7.07;;;6.45;;
4676;SDS011;2352;48.180;11.478;2022-07-23T01:36:21;7.28;;;6.70;;
4676;SDS011;2352;48.180;11.478;2022-07-23T01:43:49;9.38;;;6.68;;
4676;SDS011;2352;48.180;11.478;2022-07-23T01:46:52;7.20;;;6.60;;
4676;SDS011;2352;48.180;11.478;2022-07-23T01:49:54;6.63;;;6.07;;
4676;SDS011;2352;48.180;11.478;2022-07-23T01:52:57;7.13;;;6.63;;
4676;SDS011;2352;48.180;11.478;2022-07-23T01:56:00;6.28;;;5.78;;
4676;SDS011;2352;48.180;11.478;2022-07-23T01:59:05;7.03;;;6.32;;
4676;SDS011;2352;48.180;11.478;2022-07-23T02:02:08;6.90;;;6.30;;
4676;SDS011;2352;48.180;11.478;2022-07-23T02:05:11;6.38;;;5.97;;
4676;SDS011;2352;48.180;11.478;2022-07-23T02:08:14;6.18;;;5.70;;
4676;SDS011;2352;48.180;11.478;2022-07-23T02:11:17;6.18;;;5.70;;
4676;SDS011;2352;48.180;11.478;2022-07-23T02:14:21;6.55;;;5.95;;
4676;SDS011;2352;48.180;11.478;2022-07-23T02:17:24;6.07;;;5.53;;
4676;SDS011;2352;48.180;11.478;2022-07-23T02:20:27;5.82;;;5.43;;
4676;SDS011;2352;48.180;11.478;2022-07-23T02:23:30;6.20;;;5.60;;
4676;SDS011;2352;48.180;11.478;2022-07-23T02:26:33;5.00;;;4.68;;
4676;SDS011;2352;48.180;11.478;2022-07-23T02:29:37;4.97;;;4.65;;
4676;SDS011;2352;48.180;11.478;2022-07-23T02:32:40;4.93;;;4.53;;
4676;SDS011;2352;48.180;11.478;2022-07-23T02:35:43;5.13;;;4.65;;
4676;SDS011;2352;48.180;11.478;2022-07-23T02:38:45;4.85;;;4.45;;
4676;SDS011;2352;48.180;11.478;2022-07-23T02:41:48;5.25;;;4.72;;
4676;SDS011;2352;48.180;11.478;2022-07-23T02:44:52;5.78;;;5.05;;
4676;SDS011;2352;48.180;11.478;2022-07-23T02:47:55;5.15;;;4.75;;
4676;SDS011;2352;48.180;11.478;2022-07-23T02:50:58;5.18;;;4.68;;
4676;SDS011;2352;48.180;11.478;2022-07-23T02:54:01;6.38;;;5.35;;
4676;SDS011;2352;48.180;11.478;2022-07-23T02:57:04;5.07;;;4.68;;
4676;SDS011;2352;48.180;11.478;2022-07-23T03:00:09;5.30;;;4.95;;
4676;SDS011;2352;48.180;11.478;2022-07-23T03:03:12;5.22;;;4.82;;
4676;SDS011;2352;48.180;11.478;2022-07-23T03:06:15;5.57;;;5.07;;
4676;SDS011;2352;48.180;11.478;2022-07-23T03:09:18;4.25;;;3.95;;
4676;SDS011;2352;48.180;11.478;2022-07-23T03:12:20;4.28;;;3.97;;
4676;SDS011;2352;48.180;11.478;2022-07-23T03:15:25;3.28;;;3.08;;
4676;SDS011;2352;48.180;11.478;2022-07-23T03:18:27;4.07;;;2.95;;
4676;SDS011;2352;48.180;11.478;2022-07-23T03:21:31;3.17;;;2.97;;
4676;SDS011;2352;48.180;11.478;2022-07-23T03:24:34;2.80;;;2.60;;
4676;SDS011;2352;48.180;11.478;2022-07-23T03:27:54;4.28;;;3.05;;
4676;SDS011;2352;48.180;11.478;2022-07-23T03:30:58;3.17;;;2.95;;
4676;SDS011;2352;48.180;11.478;2022-07-23T03:34:01;3.10;;;2.88;;
4676;SDS011;2352;48.180;11.478;2022-07-23T03:37:04;3.25;;;3.05;;
4676;SDS011;2352;48.180;11.478;2022-07-23T03:40:07;3.47;;;3.17;;
4676;SDS011;2352;48.180;11.478;2022-07-23T03:43:11;3.90;;;3.60;;
4676;SDS011;2352;48.180;11.478;2022-07-23T03:46:15;3.17;;;2.97;;
4676;SDS011;2352;48.180;11.478;2022-07-23T03:49:18;3.15;;;2.95;;
4676;SDS011;2352;48.180;11.478;2022-07-23T03:52:21;3.63;;;3.42;;
4676;SDS011;2352;48.180;11.478;2022-07-23T03:55:24;3.67;;;3.47;;
4676;SDS011;2352;48.180;11.478;2022-07-23T03:58:26;3.88;;;3.67;;
4676;SDS011;2352;48.180;11.478;2022-07-23T04:01:31;4.07;;;3.78;;
4676;SDS011;2352;48.180;11.478;2022-07-23T04:04:34;4.07;;;3.80;;
4676;SDS011;2352;48.180;11.478;2022-07-23T04:07:36;3.72;;;3.50;;
4676;SDS011;2352;48.180;11.478;2022-07-23T04:10:39;4.47;;;4.18;;
4676;SDS011;2352;48.180;11.478;2022-07-23T04:13:42;3.88;;;3.63;;
4676;SDS011;2352;48.180;11.478;2022-07-23T04:16:46;4.15;;;3.85;;
4676;SDS011;2352;48.180;11.478;2022-07-23T04:19:49;4.22;;;3.92;;
4676;SDS011;2352;48.180;11.478;2022-07-23T04:22:51;4.20;;;3.90;;
4676;SDS011;2352;48.180;11.478;2022-07-23T04:25:55;4.53;;;4.13;;
4676;SDS011;2352;48.180;11.478;2022-07-23T04:28:58;4.70;;;4.43;;
4676;SDS011;2352;48.180;11.478;2022-07-23T04:32:03;4.35;;;3.95;;
4676;SDS011;2352;48.180;11.478;2022-07-23T04:35:07;4.45;;;4.15;;
4676;SDS011;2352;48.180;11.478;2022-07-23T04:38:10;4.68;;;4.38;;
4676;SDS011;2352;48.180;11.478;2022-07-23T04:41:13;4.28;;;3.97;;
4676;SDS011;2352;48.180;11.478;2022-07-23T04:44:16;4.28;;;4.00;;
4676;SDS011;2352;48.180;11.478;2022-07-23T04:47:20;4.63;;;4.32;;
4676;SDS011;2352;48.180;11.478;2022-07-23T04:50:25;4.43;;;4.13;;
4676;SDS011;2352;48.180;11.478;2022-07-23T04:53:28;4.07;;;3.83;;
4676;SDS011;2352;48.180;11.478;2022-07-23T04:56:31;4.10;;;3.80;;
4676;SDS011;2352;48.180;11.478;2022-07-23T04:59:34;5.55;;;3.90;;
4676;SDS011;2352;48.180;11.478;2022-07-23T05:02:38;4.38;;;4.07;;
4676;SDS011;2352;48.180;11.478;2022-07-23T05:05:40;4.38;;;4.07;;
4676;SDS011;2352;48.180;11.478;2022-07-23T05:08:43;4.63;;;4.32;;
4676;SDS011;2352;48.180;11.478;2022-07-23T05:11:46;4.60;;;4.30;;
4676;SDS011;2352;48.180;11.478;2022-07-23T05:14:49;4.00;;;3.80;;
4676;SDS011;2352;48.180;11.478;2022-07-23T05:17:55;4.10;;;3.80;;
4676;SDS011;2352;48.180;11.478;2022-07-23T05:20:58;4.82;;;4.47;;
4676;SDS011;2352;48.180;11.478;2022-07-23T05:24:00;4.00;;;3.70;;
4676;SDS011;2352;48.180;11.478;2022-07-23T05:27:03;3.60;;;3.40;;
4676;SDS011;2352;48.180;11.478;2022-07-23T05:30:06;4.78;;;4.47;;
4676;SDS011;2352;48.180;11.478;2022-07-23T05:33:11;4.35;;;4.15;;
4676;SDS011;2352;48.180;11.478;2022-07-23T05:36:14;4.25;;;4.05;;
4676;SDS011;2352;48.180;11.478;2022-07-23T05:39:17;4.47;;;4.28;;
4676;SDS011;2352;48.180;11.478;2022-07-23T05:42:20;4.95;;;4.65;;
4676;SDS011;2352;48.180;11.478;2022-07-23T05:45:22;4.28;;;4.05;;
4676;SDS011;2352;48.180;11.478;2022-07-23T05:48:27;4.35;;;4.15;;
4676;SDS011;2352;48.180;11.478;2022-07-23T05:51:29;5.13;;;4.80;;
4676;SDS011;2352;48.180;11.478;2022-07-23T05:54:33;4.93;;;4.63;;
4676;SDS011;2352;48.180;11.478;2022-07-23T05:57:37;5.22;;;4.82;;
4676;SDS011;2352;48.180;11.478;2022-07-23T06:00:40;5.93;;;5.53;;
4676;SDS011;2352;48.180;11.478;2022-07-23T06:03:44;6.18;;;4.93;;
4676;SDS011;2352;48.180;11.478;2022-07-23T06:06:47;4.97;;;4.68;;
4676;SDS011;2352;48.180;11.478;2022-07-23T06:09:50;4.93;;;4.50;;
4676;SDS011;2352;48.180;11.478;2022-07-23T06:12:53;5.10;;;4.80;;
4676;SDS011;2352;48.180;11.478;2022-07-23T06:16:02;5.28;;;4.97;;
4676;SDS011;2352;48.180;11.478;2022-07-23T06:19:07;4.85;;;4.45;;
4676;SDS011;2352;48.180;11.478;2022-07-23T06:22:10;5.65;;;5.25;;
4676;SDS011;2352;48.180;11.478;2022-07-23T06:25:12;5.35;;;5.05;;
4676;SDS011;2352;48.180;11.478;2022-07-23T06:28:20;5.82;;;5.43;;
4676;SDS011;2352;48.180;11.478;2022-07-23T06:31:22;5.78;;;5.47;;
4676;SDS011;2352;48.180;11.478;2022-07-23T06:34:27;5.32;;;5.03;;
4676;SDS011;2352;48.180;11.478;2022-07-23T06:37:30;5.72;;;5.28;;
4676;SDS011;2352;48.180;11.478;2022-07-23T06:40:32;5.28;;;4.93;;
4676;SDS011;2352;48.180;11.478;2022-07-23T06:43:35;5.50;;;5.20;;
4676;SDS011;2352;48.180;11.478;2022-07-23T06:46:38;6.00;;;5.22;;
4676;SDS011;2352;48.180;11.478;2022-07-23T06:49:42;6.13;;;5.63;;
4676;SDS011;2352;48.180;11.478;2022-07-23T06:52:45;5.88;;;5.47;;
4676;SDS011;2352;48.180;11.478;2022-07-23T06:55:48;6.40;;;5.50;;
4676;SDS011;2352;48.180;11.478;2022-07-23T06:58:51;5.75;;;5.45;;
4676;SDS011;2352;48.180;11.478;2022-07-23T07:01:54;7.10;;;6.50;;
4676;SDS011;2352;48.180;11.478;2022-07-23T07:05:00;6.18;;;5.75;;
4676;SDS011;2352;48.180;11.478;2022-07-23T07:08:06;5.93;;;5.53;;
4676;SDS011;2352;48.180;11.478;2022-07-23T07:11:09;6.20;;;5.80;;
4676;SDS011;2352;48.180;11.478;2022-07-23T07:14:13;6.22;;;5.82;;
4676;SDS011;2352;48.180;11.478;2022-07-23T07:17:15;6.30;;;5.85;;
4676;SDS011;2352;48.180;11.478;2022-07-23T07:20:20;5.78;;;5.38;;
4676;SDS011;2352;48.180;11.478;2022-07-23T07:23:23;6.55;;;5.20;;
4676;SDS011;2352;48.180;11.478;2022-07-23T07:26:26;5.55;;;5.25;;
4676;SDS011;2352;48.180;11.478;2022-07-23T07:29:29;5.32;;;4.88;;
4676;SDS011;2352;48.180;11.478;2022-07-23T07:32:31;6.20;;;5.80;;
4676;SDS011;2352;48.180;11.478;2022-07-23T07:35:56;7.13;;;6.65;;
4676;SDS011;2352;48.180;11.478;2022-07-23T07:38:59;7.50;;;6.97;;
4676;SDS011;2352;48.180;11.478;2022-07-23T07:42:03;7.43;;;6.82;;
4676;SDS011;2352;48.180;11.478;2022-07-23T07:45:06;8.88;;;5.97;;
4676;SDS011;2352;48.180;11.478;2022-07-23T07:48:12;6.28;;;5.88;;
4676;SDS011;2352;48.180;11.478;2022-07-23T07:51:16;6.43;;;6.03;;
4676;SDS011;2352;48.180;11.478;2022-07-23T07:54:21;8.45;;;6.97;;
4676;SDS011;2352;48.180;11.478;2022-07-23T07:57:23;7.38;;;6.78;;
4676;SDS011;2352;48.180;11.478;2022-07-23T08:00:26;6.55;;;6.15;;
4676;SDS011;2352;48.180;11.478;2022-07-23T08:03:30;6.95;;;6.55;;
4676;SDS011;2352;48.180;11.478;2022-07-23T08:06:34;6.32;;;5.93;;
4676;SDS011;2352;48.180;11.478;2022-07-23T08:09:37;6.75;;;6.05;;
4676;SDS011;2352;48.180;11.478;2022-07-23T08:12:41;6.20;;;5.80;;
4676;SDS011;2352;48.180;11.478;2022-07-23T08:15:45;6.35;;;5.75;;
4676;SDS011;2352;48.180;11.478;2022-07-23T08:18:48;6.00;;;5.60;;
4676;SDS011;2352;48.180;11.478;2022-07-23T08:21:53;6.97;;;6.45;;
4676;SDS011;2352;48.180;11.478;2022-07-23T08:24:56;5.90;;;5.50;;
4676;SDS011;2352;48.180;11.478;2022-07-23T08:27:59;8.23;;;6.88;;
4676;SDS011;2352;48.180;11.478;2022-07-23T08:31:03;5.93;;;5.47;;
4676;SDS011;2352;48.180;11.478;2022-07-23T08:34:07;6.30;;;5.90;;
4676;SDS011;2352;48.180;11.478;2022-07-23T08:37:11;6.40;;;6.00;;
4676;SDS011;2352;48.180;11.478;2022-07-23T08:40:14;6.95;;;6.45;;
4676;SDS011;2352;48.180;11.478;2022-07-23T08:43:18;6.40;;;5.82;;
4676;SDS011;2352;48.180;11.478;2022-07-23T08:46:22;6.35;;;5.95;;
4676;SDS011;2352;48.180;11.478;2022-07-23T08:49:26;6.47;;;6.03;;
4676;SDS011;2352;48.180;11.478;2022-07-23T08:52:31;6.43;;;6.03;;
4676;SDS011;2352;48.180;11.478;2022-07-23T08:55:35;6.20;;;5.65;;
4676;SDS011;2352;48.180;11.478;2022-07-23T08:58:38;6.22;;;5.68;;
4676;SDS011;2352;48.180;11.478;2022-07-23T09:01:41;6.47;;;6.00;;
4676;SDS011;2352;48.180;11.478;2022-07-23T09:04:45;6.57;;;6.18;;
4676;SDS011;2352;48.180;11.478;2022-07-23T09:08:05;6.00;;;5.60;;
4676;SDS011;2352;48.180;11.478;2022-07-23T09:11:10;5.82;;;5.53;;
4676;SDS011;2352;48.180;11.478;2022-07-23T09:14:14;6.88;;;5.65;;
4676;SDS011;2352;48.180;11.478;2022-07-23T09:17:17;5.07;;;4.78;;
4676;SDS011;2352;48.180;11.478;2022-07-23T09:20:20;5.50;;;5.20;;
4676;SDS011;2352;48.180;11.478;2022-07-23T09:23:31;4.75;;;4.45;;
4676;SDS011;2352;48.180;11.478;2022-07-23T09:26:40;6.13;;;5.72;;
4676;SDS011;2352;48.180;11.478;2022-07-23T09:29:54;6.90;;;6.50;;
4676;SDS011;2352;48.180;11.478;2022-07-23T09:33:08;6.28;;;5.90;;
4676;SDS011;2352;48.180;11.478;2022-07-23T09:36:12;6.40;;;6.00;;
4676;SDS011;2352;48.180;11.478;2022-07-23T09:39:24;5.97;;;5.47;;
4676;SDS011;2352;48.180;11.478;2022-07-23T09:42:29;6.57;;;6.07;;
4676;SDS011;2352;48.180;11.478;2022-07-23T09:45:32;6.60;;;6.20;;
4676;SDS011;2352;48.180;11.478;2022-07-23T09:48:36;5.90;;;5.50;;
4676;SDS011;2352;48.180;11.478;2022-07-23T09:51:46;5.82;;;5.35;;
4676;SDS011;2352;48.180;11.478;2022-07-23T09:54:58;5.82;;;5.53;;
4676;SDS011;2352;48.180;11.478;2022-07-23T09:58:03;5.40;;;5.00;;
4676;SDS011;2352;48.180;11.478;2022-07-23T10:01:07;5.05;;;4.75;;
4676;SDS011;2352;48.180;11.478;2022-07-23T10:04:11;4.90;;;4.60;;
4676;SDS011;2352;48.180;11.478;2022-07-23T10:07:14;4.57;;;4.28;;
4676;SDS011;2352;48.180;11.478;2022-07-23T10:10:23;7.60;;;4.88;;
4676;SDS011;2352;48.180;11.478;2022-07-23T10:13:29;5.30;;;4.90;;
4676;SDS011;2352;48.180;11.478;2022-07-23T10:16:50;4.85;;;4.45;;
4676;SDS011;2352;48.180;11.478;2022-07-23T10:19:53;5.45;;;5.13;;
4676;SDS011;2352;48.180;11.478;2022-07-23T10:22:58;5.40;;;5.10;;
4676;SDS011;2352;48.180;11.478;2022-07-23T10:26:10;4.40;;;4.10;;
4676;SDS011;2352;48.180;11.478;2022-07-23T10:29:22;5.93;;;5.53;;
4676;SDS011;2352;48.180;11.478;2022-07-23T10:32:41;5.47;;;5.05;;
4676;SDS011;2352;48.180;11.478;2022-07-23T10:35:51;8.43;;;5.60;;
4676;SDS011;2352;48.180;11.478;2022-07-23T10:39:04;5.60;;;5.20;;
4676;SDS011;2352;48.180;11.478;2022-07-23T10:42:10;4.78;;;4.47;;
4676;SDS011;2352;48.180;11.478;2022-07-23T10:45:25;5.57;;;5.05;;
4676;SDS011;2352;48.180;11.478;2022-07-23T10:48:33;5.03;;;4.57;;
4676;SDS011;2352;48.180;11.478;2022-07-23T10:51:37;5.05;;;4.63;;
4676;SDS011;2352;48.180;11.478;2022-07-23T10:54:40;4.68;;;4.38;;
4676;SDS011;2352;48.180;11.478;2022-07-23T10:57:48;5.25;;;4.75;;
4676;SDS011;2352;48.180;11.478;2022-07-23T11:00:52;5.57;;;5.18;;
4676;SDS011;2352;48.180;11.478;2022-07-23T11:03:56;5.20;;;4.90;;
4676;SDS011;2352;48.180;11.478;2022-07-23T11:07:06;4.80;;;4.40;;
4676;SDS011;2352;48.180;11.478;2022-07-23T11:10:11;4.32;;;4.13;;
4676;SDS011;2352;48.180;11.478;2022-07-23T11:13:39;4.45;;;4.18;;
4676;SDS011;2352;48.180;11.478;2022-07-23T11:16:51;4.57;;;4.32;;
4676;SDS011;2352;48.180;11.478;2022-07-23T11:20:13;5.72;;;5.40;;
4676;SDS011;2352;48.180;11.478;2022-07-23T11:23:19;4.43;;;4.22;;
4676;SDS011;2352;48.180;11.478;2022-07-23T11:29:52;5.25;;;4.88;;
4676;SDS011;2352;48.180;11.478;2022-07-23T11:33:15;5.00;;;4.55;;
4676;SDS011;2352;48.180;11.478;2022-07-23T11:36:19;5.72;;;5.40;;
4676;SDS011;2352;48.180;11.478;2022-07-23T11:39:22;5.97;;;5.57;;
4676;SDS011;2352;48.180;11.478;2022-07-23T11:42:28;5.88;;;5.47;;
4676;SDS011;2352;48.180;11.478;2022-07-23T11:45:34;5.53;;;5.20;;
4676;SDS011;2352;48.180;11.478;2022-07-23T11:48:38;6.10;;;5.60;;
4676;SDS011;2352;48.180;11.478;2022-07-23T11:51:41;5.55;;;5.25;;
4676;SDS011;2352;48.180;11.478;2022-07-23T11:54:46;5.88;;;5.47;;
4676;SDS011;2352;48.180;11.478;2022-07-23T11:57:50;6.68;;;6.18;;
4676;SDS011;2352;48.180;11.478;2022-07-23T12:00:56;5.60;;;5.20;;
4676;SDS011;2352;48.180;11.478;2022-07-23T12:03:59;6.25;;;5.85;;
4676;SDS011;2352;48.180;11.478;2022-07-23T12:07:03;6.43;;;6.03;;
4676;SDS011;2352;48.180;11.478;2022-07-23T12:10:09;6.82;;;6.32;;
4676;SDS011;2352;48.180;11.478;2022-07-23T12:13:16;6.70;;;6.30;;
4676;SDS011;2352;48.180;11.478;2022-07-23T12:16:23;5.35;;;5.05;;
4676;SDS011;2352;48.180;11.478;2022-07-23T12:19:25;5.82;;;5.53;;
4676;SDS011;2352;48.180;11.478;2022-07-23T12:22:33;6.00;;;5.60;;
4676;SDS011;2352;48.180;11.478;2022-07-23T12:25:37;5.93;;;5.53;;
4676;SDS011;2352;48.180;11.478;2022-07-23T12:28:42;6.18;;;5.35;;
4676;SDS011;2352;48.180;11.478;2022-07-23T12:31:55;5.82;;;5.50;;
4676;SDS011;2352;48.180;11.478;2022-07-23T12:35:03;6.28;;;5.78;;
4676;SDS011;2352;48.180;11.478;2022-07-23T12:38:08;6.50;;;6.10;;
4676;SDS011;2352;48.180;11.478;2022-07-23T12:41:12;6.95;;;6.45;;
4676;SDS011;2352;48.180;11.478;2022-07-23T12:44:15;5.38;;;5.03;;
4676;SDS011;2352;48.180;11.478;2022-07-23T12:47:19;5.95;;;5.45;;
4676;SDS011;2352;48.180;11.478;2022-07-23T12:50:35;6.00;;;5.55;;
4676;SDS011;2352;48.180;11.478;2022-07-23T12:53:41;6.13;;;5.72;;
4676;SDS011;2352;48.180;11.478;2022-07-23T12:56:45;5.50;;;4.88;;
4676;SDS011;2352;48.180;11.478;2022-07-23T12:59:49;6.72;;;6.20;;
4676;SDS011;2352;48.180;11.478;2022-07-23T13:02:53;6.32;;;5.85;;
4676;SDS011;2352;48.180;11.478;2022-07-23T13:05:56;5.97;;;5.57;;
4676;SDS011;2352;48.180;11.478;2022-07-23T13:09:01;5.03;;;4.53;;
4676;SDS011;2352;48.180;11.478;2022-07-23T13:12:06;6.97;;;5.85;;
4676;SDS011;2352;48.180;11.478;2022-07-23T13:15:11;7.15;;;6.68;;
4676;SDS011;2352;48.180;11.478;2022-07-23T13:18:16;6.90;;;6.15;;
4676;SDS011;2352;48.180;11.478;2022-07-23T13:21:20;6.70;;;6.20;;
4676;SDS011;2352;48.180;11.478;2022-07-23T13:24:24;6.38;;;5.97;;
4676;SDS011;2352;48.180;11.478;2022-07-23T13:27:27;5.88;;;5.47;;
4676;SDS011;2352;48.180;11.478;2022-07-23T13:30:30;7.10;;;6.43;;
4676;SDS011;2352;48.180;11.478;2022-07-23T13:33:35;6.53;;;6.13;;
4676;SDS011;2352;48.180;11.478;2022-07-23T13:36:38;6.63;;;6.00;;
4676;SDS011;2352;48.180;11.478;2022-07-23T13:39:41;6.90;;;6.30;;
4676;SDS011;2352;48.180;11.478;2022-07-23T13:42:47;6.55;;;6.05;;
4676;SDS011;2352;48.180;11.478;2022-07-23T13:45:50;7.70;;;7.10;;
4676;SDS011;2352;48.180;11.478;2022-07-23T13:48:55;6.93;;;6.45;;
4676;SDS011;2352;48.180;11.478;2022-07-23T13:52:00;5.65;;;5.35;;
4676;SDS011;2352;48.180;11.478;2022-07-23T13:55:06;6.53;;;6.13;;
4676;SDS011;2352;48.180;11.478;2022-07-23T13:58:10;6.25;;;5.85;;
4676;SDS011;2352;48.180;11.478;2022-07-23T14:01:13;6.93;;;6.45;;
4676;SDS011;2352;48.180;11.478;2022-07-23T14:04:19;6.50;;;6.00;;
4676;SDS011;2352;48.180;11.478;2022-07-23T14:07:23;6.38;;;5.78;;
4676;SDS011;2352;48.180;11.478;2022-07-23T14:10:26;7.28;;;6.47;;
4676;SDS011;2352;48.180;11.478;2022-07-23T14:13:29;6.30;;;5.80;;
4676;SDS011;2352;48.180;11.478;2022-07-23T14:16:32;5.30;;;5.00;;
4676;SDS011;2352;48.180;11.478;2022-07-23T14:19:37;5.70;;;5.25;;
4676;SDS011;2352;48.180;11.478;2022-07-23T14:22:41;6.35;;;5.95;;
4676;SDS011;2352;48.180;11.478;2022-07-23T14:25:44;6.55;;;6.15;;
4676;SDS011;2352;48.180;11.478;2022-07-23T14:28:47;7.32;;;6.60;;
4676;SDS011;2352;48.180;11.478;2022-07-23T14:31:50;6.75;;;6.13;;
4676;SDS011;2352;48.180;11.478;2022-07-23T14:34:56;6.05;;;5.65;;
4676;SDS011;2352;48.180;11.478;2022-07-23T14:37:59;5.72;;;5.43;;
4676;SDS011;2352;48.180;11.478;2022-07-23T14:41:02;6.13;;;5.82;;
4676;SDS011;2352;48.180;11.478;2022-07-23T14:44:07;5.97;;;5.57;;
4676;SDS011;2352;48.180;11.478;2022-07-23T14:47:10;4.90;;;4.65;;
4676;SDS011;2352;48.180;11.478;2022-07-23T14:50:23;6.53;;;5.97;;
4676;SDS011;2352;48.180;11.478;2022-07-23T14:53:27;6.55;;;6.13;;
4676;SDS011;2352;48.180;11.478;2022-07-23T14:56:30;5.80;;;5.40;;
4676;SDS011;2352;48.180;11.478;2022-07-23T14:59:35;6.00;;;5.70;;
4676;SDS011;2352;48.180;11.478;2022-07-23T15:02:39;5.45;;;5.15;;
4676;SDS011;2352;48.180;11.478;2022-07-23T15:05:43;5.85;;;5.40;;
4676;SDS011;2352;48.180;11.478;2022-07-23T15:08:46;6.70;;;6.20;;
4676;SDS011;2352;48.180;11.478;2022-07-23T15:11:49;5.80;;;5.28;;
4676;SDS011;2352;48.180;11.478;2022-07-23T15:14:53;6.13;;;5.72;;
4676;SDS011;2352;48.180;11.478;2022-07-23T15:17:56;6.38;;;5.97;;
4676;SDS011;2352;48.180;11.478;2022-07-23T15:21:00;6.43;;;6.00;;
4676;SDS011;2352;48.180;11.478;2022-07-23T15:24:04;6.10;;;5.70;;
4676;SDS011;2352;48.180;11.478;2022-07-23T15:27:07;5.75;;;5.45;;
4676;SDS011;2352;48.180;11.478;2022-07-23T15:30:11;6.15;;;5.75;;
4676;SDS011;2352;48.180;11.478;2022-07-23T15:33:14;7.40;;;6.82;;
4676;SDS011;2352;48.180;11.478;2022-07-23T15:36:23;7.47;;;7.05;;
4676;SDS011;2352;48.180;11.478;2022-07-23T15:39:26;7.47;;;6.78;;
4676;SDS011;2352;48.180;11.478;2022-07-23T15:42:29;6.00;;;5.60;;
4676;SDS011;2352;48.180;11.478;2022-07-23T15:45:32;6.38;;;5.97;;
4676;SDS011;2352;48.180;11.478;2022-07-23T15:48:36;6.70;;;6.30;;
4676;SDS011;2352;48.180;11.478;2022-07-23T15:51:41;6.38;;;6.07;;
4676;SDS011;2352;48.180;11.478;2022-07-23T15:54:48;7.25;;;6.80;;
4676;SDS011;2352;48.180;11.478;2022-07-23T15:57:51;6.50;;;6.10;;
4676;SDS011;2352;48.180;11.478;2022-07-23T16:00:55;6.68;;;6.28;;
4676;SDS011;2352;48.180;11.478;2022-07-23T16:03:58;7.25;;;6.75;;
4676;SDS011;2352;48.180;11.478;2022-07-23T16:07:03;6.97;;;6.57;;
4676;SDS011;2352;48.180;11.478;2022-07-23T16:10:11;7.57;;;7.03;;
4676;SDS011;2352;48.180;11.478;2022-07-23T16:13:14;6.97;;;6.57;;
4676;SDS011;2352;48.180;11.478;2022-07-23T16:16:17;7.15;;;6.75;;
4676;SDS011;2352;48.180;11.478;2022-07-23T16:19:21;7.00;;;6.60;;
4676;SDS011;2352;48.180;11.478;2022-07-23T16:22:25;8.40;;;7.80;;
4676;SDS011;2352;48.180;11.478;2022-07-23T16:25:28;8.00;;;7.43;;
4676;SDS011;2352;48.180;11.478;2022-07-23T16:28:31;7.00;;;6.55;;
4676;SDS011;2352;48.180;11.478;2022-07-23T16:31:34;7.93;;;7.43;;
4676;SDS011;2352;48.180;11.478;2022-07-23T16:34:37;6.95;;;6.45;;
4676;SDS011;2352;48.180;11.478;2022-07-23T16:37:42;7.63;;;7.18;;
4676;SDS011;2352;48.180;11.478;2022-07-23T16:40:45;7.10;;;6.70;;
4676;SDS011;2352;48.180;11.478;2022-07-23T16:43:48;7.55;;;6.97;;
4676;SDS011;2352;48.180;11.478;2022-07-23T16:46:51;7.63;;;7.18;;
4676;SDS011;2352;48.180;11.478;2022-07-23T16:49:54;7.32;;;6.93;;
4676;SDS011;2352;48.180;11.478;2022-07-23T16:52:58;7.55;;;6.93;;
4676;SDS011;2352;48.180;11.478;2022-07-23T16:56:02;7.72;;;7.15;;
4676;SDS011;2352;48.180;11.478;2022-07-23T16:59:05;7.75;;;7.25;;
4676;SDS011;2352;48.180;11.478;2022-07-23T17:02:09;7.70;;;7.20;;
4676;SDS011;2352;48.180;11.478;2022-07-23T17:05:12;7.45;;;6.95;;
4676;SDS011;2352;48.180;11.478;2022-07-23T17:08:16;7.93;;;7.45;;
4676;SDS011;2352;48.180;11.478;2022-07-23T17:11:19;8.50;;;7.95;;
4676;SDS011;2352;48.180;11.478;2022-07-23T17:14:22;7.72;;;7.32;;
4676;SDS011;2352;48.180;11.478;2022-07-23T17:17:26;7.95;;;7.40;;
4676;SDS011;2352;48.180;11.478;2022-07-23T17:20:29;7.05;;;6.50;;
4676;SDS011;2352;48.180;11.478;2022-07-23T17:23:33;8.63;;;7.97;;
4676;SDS011;2352;48.180;11.478;2022-07-23T17:26:37;7.07;;;6.57;;
4676;SDS011;2352;48.180;11.478;2022-07-23T17:29:45;8.40;;;7.80;;
4676;SDS011;2352;48.180;11.478;2022-07-23T17:32:48;8.25;;;7.70;;
4676;SDS011;2352;48.180;11.478;2022-07-23T17:35:52;7.82;;;7.32;;
4676;SDS011;2352;48.180;11.478;2022-07-23T17:38:57;8.23;;;7.72;;
4676;SDS011;2352;48.180;11.478;2022-07-23T17:42:06;6.95;;;6.45;;
4676;SDS011;2352;48.180;11.478;2022-07-23T17:45:09;8.60;;;8.00;;
4676;SDS011;2352;48.180;11.478;2022-07-23T17:48:17;7.85;;;7.35;;
4676;SDS011;2352;48.180;11.478;2022-07-23T17:51:19;16.23;;;14.98;;
4676;SDS011;2352;48.180;11.478;2022-07-23T17:54:24;12.00;;;11.30;;
4676;SDS011;2352;48.180;11.478;2022-07-23T17:57:27;9.90;;;9.20;;
4676;SDS011;2352;48.180;11.478;2022-07-23T18:00:32;8.98;;;8.45;;
4676;SDS011;2352;48.180;11.478;2022-07-23T18:03:37;8.23;;;7.68;;
4676;SDS011;2352;48.180;11.478;2022-07-23T18:06:41;8.18;;;7.68;;
4676;SDS011;2352;48.180;11.478;2022-07-23T18:09:45;13.88;;;12.98;;
4676;SDS011;2352;48.180;11.478;2022-07-23T18:12:49;16.70;;;15.52;;
4676;SDS011;2352;48.180;11.478;2022-07-23T18:15:51;10.88;;;10.27;;
4676;SDS011;2352;48.180;11.478;2022-07-23T18:18:55;9.48;;;8.85;;
4676;SDS011;2352;48.180;11.478;2022-07-23T18:21:58;10.57;;;9.85;;
4676;SDS011;2352;48.180;11.478;2022-07-23T18:25:03;13.43;;;12.52;;
4676;SDS011;2352;48.180;11.478;2022-07-23T18:28:07;9.23;;;8.73;;
4676;SDS011;2352;48.180;11.478;2022-07-23T18:31:10;11.77;;;10.95;;
4676;SDS011;2352;48.180;11.478;2022-07-23T18:34:16;8.30;;;7.80;;
4676;SDS011;2352;48.180;11.478;2022-07-23T18:37:25;8.38;;;7.82;;
4676;SDS011;2352;48.180;11.478;2022-07-23T18:40:38;8.98;;;8.48;;
4676;SDS011;2352;48.180;11.478;2022-07-23T18:43:41;10.50;;;9.63;;
4676;SDS011;2352;48.180;11.478;2022-07-23T18:46:45;8.95;;;8.35;;
4676;SDS011;2352;48.180;11.478;2022-07-23T18:49:48;9.52;;;8.02;;
4676;SDS011;2352;48.180;11.478;2022-07-23T18:52:53;8.23;;;7.80;;
4676;SDS011;2352;48.180;11.478;2022-07-23T18:55:57;9.52;;;8.63;;